sensor_id;sensor_type;location;lat;lon;timestamp;P1;durP1;ratioP1;P2;durP2;ratioP2
77384;SDS011;66443;49.122;8.346;2024-01-30T00:00:25;18.07;;;15.73;;
77384;SDS011;66443;49.122;8.346;2024-01-30T00:02:50;22.90;;;16.00;;
77384;SDS011;66443;49.122;8.346;2024-01-30T00:05:15;19.60;;;15.87;;
77384;SDS011;66443;49.122;8.346;2024-01-30T00:07:41;20.23;;;16.13;;
77384;SDS011;66443;49.122;8.346;2024-01-30T00:10:06;21.33;;;15.67;;
77384;SDS011;66443;49.122;8.346;2024-01-30T00:12:31;17.40;;;14.83;;
77384;SDS011;66443;49.122;8.346;2024-01-30T00:14:57;17.63;;;14.43;;
77384;SDS011;66443;49.122;8.346;2024-01-30T00:17:22;17.57;;;15.20;;
77384;SDS011;66443;49.122;8.346;2024-01-30T00:19:50;18.63;;;13.90;;
77384;SDS011;66443;49.122;8.346;2024-01-30T00:22:15;20.13;;;15.30;;
77384;SDS011;66443;49.122;8.346;2024-01-30T00:24:40;16.87;;;15.03;;
77384;SDS011;66443;49.122;8.346;2024-01-30T00:27:05;22.53;;;15.10;;
77384;SDS011;66443;49.122;8.346;2024-01-30T00:29:31;17.10;;;13.60;;
77384;SDS011;66443;49.122;8.346;2024-01-30T00:31:58;19.03;;;14.77;;
77384;SDS011;66443;49.122;8.346;2024-01-30T00:34:23;15.27;;;13.47;;
77384;SDS011;66443;49.122;8.346;2024-01-30T00:36:49;18.73;;;14.53;;
77384;SDS011;66443;49.122;8.346;2024-01-30T00:39:14;19.80;;;12.93;;
77384;SDS011;66443;49.122;8.346;2024-01-30T00:41:40;17.07;;;13.27;;
77384;SDS011;66443;49.122;8.346;2024-01-30T00:44:06;17.57;;;13.37;;
77384;SDS011;66443;49.122;8.346;2024-01-30T00:46:31;17.47;;;13.17;;
77384;SDS011;66443;49.122;8.346;2024-01-30T00:48:56;16.33;;;14.07;;
77384;SDS011;66443;49.122;8.346;2024-01-30T00:51:21;18.80;;;14.03;;
77384;SDS011;66443;49.122;8.346;2024-01-30T00:53:47;17.93;;;13.63;;
77384;SDS011;66443;49.122;8.346;2024-01-30T00:56:12;16.93;;;13.83;;
77384;SDS011;66443;49.122;8.346;2024-01-30T00:58:37;16.83;;;13.87;;
77384;SDS011;66443;49.122;8.346;2024-01-30T01:01:02;19.63;;;13.27;;
77384;SDS011;66443;49.122;8.346;2024-01-30T01:03:27;22.13;;;14.87;;
77384;SDS011;66443;49.122;8.346;2024-01-30T01:05:53;21.23;;;14.13;;
77384;SDS011;66443;49.122;8.346;2024-01-30T01:08:18;19.67;;;15.17;;
77384;SDS011;66443;49.122;8.346;2024-01-30T01:10:43;17.07;;;13.90;;
77384;SDS011;66443;49.122;8.346;2024-01-30T01:13:08;18.80;;;14.50;;
77384;SDS011;66443;49.122;8.346;2024-01-30T01:15:34;15.73;;;13.47;;
77384;SDS011;66443;49.122;8.346;2024-01-30T01:17:59;15.97;;;13.53;;
77384;SDS011;66443;49.122;8.346;2024-01-30T01:20:25;18.90;;;15.33;;
77384;SDS011;66443;49.122;8.346;2024-01-30T01:22:50;23.30;;;13.87;;
77384;SDS011;66443;49.122;8.346;2024-01-30T01:25:15;19.47;;;14.43;;
77384;SDS011;66443;49.122;8.346;2024-01-30T01:27:40;19.77;;;15.40;;
77384;SDS011;66443;49.122;8.346;2024-01-30T01:30:10;21.93;;;15.30;;
77384;SDS011;66443;49.122;8.346;2024-01-30T01:32:35;20.90;;;15.63;;
77384;SDS011;66443;49.122;8.346;2024-01-30T01:35:01;16.90;;;14.40;;
77384;SDS011;66443;49.122;8.346;2024-01-30T01:37:27;19.03;;;14.80;;
77384;SDS011;66443;49.122;8.346;2024-01-30T01:39:52;19.30;;;15.27;;
77384;SDS011;66443;49.122;8.346;2024-01-30T01:42:17;24.57;;;16.37;;
77384;SDS011;66443;49.122;8.346;2024-01-30T01:44:43;16.60;;;14.50;;
77384;SDS011;66443;49.122;8.346;2024-01-30T01:47:08;22.87;;;15.40;;
77384;SDS011;66443;49.122;8.346;2024-01-30T01:49:33;18.90;;;14.13;;
77384;SDS011;66443;49.122;8.346;2024-01-30T01:51:58;19.73;;;14.90;;
77384;SDS011;66443;49.122;8.346;2024-01-30T01:54:24;21.13;;;15.07;;
77384;SDS011;66443;49.122;8.346;2024-01-30T01:56:50;23.07;;;16.50;;
77384;SDS011;66443;49.122;8.346;2024-01-30T01:59:16;19.97;;;15.20;;
77384;SDS011;66443;49.122;8.346;2024-01-30T02:01:42;20.43;;;15.53;;
77384;SDS011;66443;49.122;8.346;2024-01-30T02:04:08;19.20;;;15.07;;
77384;SDS011;66443;49.122;8.346;2024-01-30T02:06:34;21.80;;;16.20;;
77384;SDS011;66443;49.122;8.346;2024-01-30T02:08:59;19.73;;;15.03;;
77384;SDS011;66443;49.122;8.346;2024-01-30T02:11:24;20.77;;;15.50;;
77384;SDS011;66443;49.122;8.346;2024-01-30T02:13:50;21.87;;;15.27;;
77384;SDS011;66443;49.122;8.346;2024-01-30T02:16:15;21.17;;;16.23;;
77384;SDS011;66443;49.122;8.346;2024-01-30T02:18:40;22.17;;;16.13;;
77384;SDS011;66443;49.122;8.346;2024-01-30T02:21:10;18.80;;;14.23;;
77384;SDS011;66443;49.122;8.346;2024-01-30T02:23:35;19.83;;;15.93;;
77384;SDS011;66443;49.122;8.346;2024-01-30T02:26:01;21.60;;;15.30;;
77384;SDS011;66443;49.122;8.346;2024-01-30T02:28:26;29.10;;;16.33;;
77384;SDS011;66443;49.122;8.346;2024-01-30T02:30:52;18.33;;;14.50;;
77384;SDS011;66443;49.122;8.346;2024-01-30T02:33:17;16.57;;;14.77;;
77384;SDS011;66443;49.122;8.346;2024-01-30T02:35:43;19.90;;;14.23;;
77384;SDS011;66443;49.122;8.346;2024-01-30T02:38:08;18.23;;;15.77;;
77384;SDS011;66443;49.122;8.346;2024-01-30T02:40:33;19.47;;;14.77;;
77384;SDS011;66443;49.122;8.346;2024-01-30T02:42:59;26.37;;;16.30;;
77384;SDS011;66443;49.122;8.346;2024-01-30T02:45:24;16.90;;;14.73;;
77384;SDS011;66443;49.122;8.346;2024-01-30T02:47:49;20.67;;;15.83;;
77384;SDS011;66443;49.122;8.346;2024-01-30T02:50:15;20.83;;;15.20;;
77384;SDS011;66443;49.122;8.346;2024-01-30T02:52:41;18.87;;;14.70;;
77384;SDS011;66443;49.122;8.346;2024-01-30T02:55:08;21.33;;;16.63;;
77384;SDS011;66443;49.122;8.346;2024-01-30T02:57:33;19.40;;;15.10;;
77384;SDS011;66443;49.122;8.346;2024-01-30T02:59:59;21.10;;;16.63;;
77384;SDS011;66443;49.122;8.346;2024-01-30T03:02:25;19.10;;;15.40;;
77384;SDS011;66443;49.122;8.346;2024-01-30T03:04:50;17.07;;;15.07;;
77384;SDS011;66443;49.122;8.346;2024-01-30T03:07:15;23.20;;;17.17;;
77384;SDS011;66443;49.122;8.346;2024-01-30T03:09:43;19.33;;;15.90;;
77384;SDS011;66443;49.122;8.346;2024-01-30T03:12:09;21.90;;;16.17;;
77384;SDS011;66443;49.122;8.346;2024-01-30T03:14:34;21.97;;;16.17;;
77384;SDS011;66443;49.122;8.346;2024-01-30T03:16:59;18.10;;;14.93;;
77384;SDS011;66443;49.122;8.346;2024-01-30T03:19:24;19.13;;;15.20;;
77384;SDS011;66443;49.122;8.346;2024-01-30T03:21:50;18.00;;;15.10;;
77384;SDS011;66443;49.122;8.346;2024-01-30T03:24:16;17.23;;;15.30;;
77384;SDS011;66443;49.122;8.346;2024-01-30T03:26:41;23.60;;;16.37;;
77384;SDS011;66443;49.122;8.346;2024-01-30T03:29:06;16.37;;;14.77;;
77384;SDS011;66443;49.122;8.346;2024-01-30T03:31:31;18.83;;;16.43;;
77384;SDS011;66443;49.122;8.346;2024-01-30T03:33:56;20.70;;;15.97;;
77384;SDS011;66443;49.122;8.346;2024-01-30T03:36:22;21.10;;;17.00;;
77384;SDS011;66443;49.122;8.346;2024-01-30T03:38:47;21.97;;;16.37;;
77384;SDS011;66443;49.122;8.346;2024-01-30T03:41:12;18.47;;;15.27;;
77384;SDS011;66443;49.122;8.346;2024-01-30T03:43:37;19.23;;;15.83;;
77384;SDS011;66443;49.122;8.346;2024-01-30T03:46:02;19.10;;;15.10;;
77384;SDS011;66443;49.122;8.346;2024-01-30T03:48:28;22.13;;;15.10;;
77384;SDS011;66443;49.122;8.346;2024-01-30T03:50:54;17.80;;;15.47;;
77384;SDS011;66443;49.122;8.346;2024-01-30T03:53:19;18.20;;;15.30;;
77384;SDS011;66443;49.122;8.346;2024-01-30T03:55:44;20.53;;;14.10;;
77384;SDS011;66443;49.122;8.346;2024-01-30T03:58:09;19.03;;;14.47;;
77384;SDS011;66443;49.122;8.346;2024-01-30T04:00:34;21.17;;;16.13;;
77384;SDS011;66443;49.122;8.346;2024-01-30T04:03:00;20.23;;;14.80;;
77384;SDS011;66443;49.122;8.346;2024-01-30T04:05:25;18.50;;;15.37;;
77384;SDS011;66443;49.122;8.346;2024-01-30T04:07:50;28.63;;;17.90;;
77384;SDS011;66443;49.122;8.346;2024-01-30T04:10:16;23.43;;;17.43;;
77384;SDS011;66443;49.122;8.346;2024-01-30T04:12:41;25.33;;;18.30;;
77384;SDS011;66443;49.122;8.346;2024-01-30T04:15:06;19.57;;;16.20;;
77384;SDS011;66443;49.122;8.346;2024-01-30T04:17:31;26.83;;;17.80;;
77384;SDS011;66443;49.122;8.346;2024-01-30T04:19:57;27.67;;;19.57;;
77384;SDS011;66443;49.122;8.346;2024-01-30T04:22:22;42.63;;;28.67;;
77384;SDS011;66443;49.122;8.346;2024-01-30T04:24:47;29.27;;;18.23;;
77384;SDS011;66443;49.122;8.346;2024-01-30T04:27:13;20.70;;;17.13;;
77384;SDS011;66443;49.122;8.346;2024-01-30T04:29:38;21.23;;;15.40;;
77384;SDS011;66443;49.122;8.346;2024-01-30T04:32:03;24.87;;;15.90;;
77384;SDS011;66443;49.122;8.346;2024-01-30T04:34:29;19.73;;;16.33;;
77384;SDS011;66443;49.122;8.346;2024-01-30T04:36:54;16.93;;;14.87;;
77384;SDS011;66443;49.122;8.346;2024-01-30T04:39:19;20.10;;;14.87;;
77384;SDS011;66443;49.122;8.346;2024-01-30T04:41:44;18.00;;;16.10;;
77384;SDS011;66443;49.122;8.346;2024-01-30T04:44:09;17.60;;;14.63;;
77384;SDS011;66443;49.122;8.346;2024-01-30T04:46:34;19.03;;;15.47;;
77384;SDS011;66443;49.122;8.346;2024-01-30T04:49:00;16.43;;;14.73;;
77384;SDS011;66443;49.122;8.346;2024-01-30T04:51:25;23.53;;;16.57;;
77384;SDS011;66443;49.122;8.346;2024-01-30T04:53:50;26.73;;;18.27;;
77384;SDS011;66443;49.122;8.346;2024-01-30T04:56:15;25.20;;;17.60;;
77384;SDS011;66443;49.122;8.346;2024-01-30T04:58:40;21.23;;;18.47;;
77384;SDS011;66443;49.122;8.346;2024-01-30T05:01:06;26.87;;;19.93;;
77384;SDS011;66443;49.122;8.346;2024-01-30T05:03:33;24.60;;;16.10;;
77384;SDS011;66443;49.122;8.346;2024-01-30T05:05:58;23.00;;;16.43;;
77384;SDS011;66443;49.122;8.346;2024-01-30T05:08:23;24.73;;;17.73;;
77384;SDS011;66443;49.122;8.346;2024-01-30T05:10:48;21.90;;;17.03;;
77384;SDS011;66443;49.122;8.346;2024-01-30T05:13:14;18.77;;;15.40;;
77384;SDS011;66443;49.122;8.346;2024-01-30T05:15:39;17.73;;;14.67;;
77384;SDS011;66443;49.122;8.346;2024-01-30T05:18:04;18.90;;;14.57;;
77384;SDS011;66443;49.122;8.346;2024-01-30T05:20:29;19.20;;;14.77;;
77384;SDS011;66443;49.122;8.346;2024-01-30T05:22:55;27.53;;;15.57;;
77384;SDS011;66443;49.122;8.346;2024-01-30T05:25:20;23.53;;;15.57;;
77384;SDS011;66443;49.122;8.346;2024-01-30T05:27:45;16.07;;;14.13;;
77384;SDS011;66443;49.122;8.346;2024-01-30T05:30:11;22.43;;;15.20;;
77384;SDS011;66443;49.122;8.346;2024-01-30T05:32:36;20.73;;;15.63;;
77384;SDS011;66443;49.122;8.346;2024-01-30T05:35:01;19.23;;;14.43;;
77384;SDS011;66443;49.122;8.346;2024-01-30T05:37:26;16.90;;;14.93;;
77384;SDS011;66443;49.122;8.346;2024-01-30T05:39:52;20.40;;;14.60;;
77384;SDS011;66443;49.122;8.346;2024-01-30T05:42:17;15.93;;;14.23;;
77384;SDS011;66443;49.122;8.346;2024-01-30T05:44:42;19.83;;;14.23;;
77384;SDS011;66443;49.122;8.346;2024-01-30T05:47:07;20.00;;;14.67;;
77384;SDS011;66443;49.122;8.346;2024-01-30T05:49:32;16.87;;;14.07;;
77384;SDS011;66443;49.122;8.346;2024-01-30T05:51:58;21.40;;;14.73;;
77384;SDS011;66443;49.122;8.346;2024-01-30T05:54:23;17.57;;;14.43;;
77384;SDS011;66443;49.122;8.346;2024-01-30T05:56:48;20.27;;;14.77;;
77384;SDS011;66443;49.122;8.346;2024-01-30T05:59:13;20.60;;;14.63;;
77384;SDS011;66443;49.122;8.346;2024-01-30T06:01:44;19.20;;;13.33;;
77384;SDS011;66443;49.122;8.346;2024-01-30T06:04:10;18.70;;;12.97;;
77384;SDS011;66443;49.122;8.346;2024-01-30T06:06:35;18.13;;;13.30;;
77384;SDS011;66443;49.122;8.346;2024-01-30T06:09:00;18.10;;;13.53;;
77384;SDS011;66443;49.122;8.346;2024-01-30T06:11:25;16.83;;;13.80;;
77384;SDS011;66443;49.122;8.346;2024-01-30T06:13:50;21.57;;;13.90;;
77384;SDS011;66443;49.122;8.346;2024-01-30T06:16:16;17.47;;;14.73;;
77384;SDS011;66443;49.122;8.346;2024-01-30T06:18:41;28.83;;;17.27;;
77384;SDS011;66443;49.122;8.346;2024-01-30T06:21:06;19.27;;;15.90;;
77384;SDS011;66443;49.122;8.346;2024-01-30T06:23:31;24.40;;;15.80;;
77384;SDS011;66443;49.122;8.346;2024-01-30T06:25:57;69.17;;;30.13;;
77384;SDS011;66443;49.122;8.346;2024-01-30T06:28:22;37.20;;;22.90;;
77384;SDS011;66443;49.122;8.346;2024-01-30T06:30:47;36.13;;;19.27;;
77384;SDS011;66443;49.122;8.346;2024-01-30T06:33:12;31.70;;;21.27;;
77384;SDS011;66443;49.122;8.346;2024-01-30T06:35:38;29.10;;;20.10;;
77384;SDS011;66443;49.122;8.346;2024-01-30T06:38:05;21.43;;;17.07;;
77384;SDS011;66443;49.122;8.346;2024-01-30T06:40:30;17.47;;;15.17;;
77384;SDS011;66443;49.122;8.346;2024-01-30T06:42:55;16.97;;;13.73;;
77384;SDS011;66443;49.122;8.346;2024-01-30T06:45:20;19.27;;;13.53;;
77384;SDS011;66443;49.122;8.346;2024-01-30T06:47:45;17.53;;;14.67;;
77384;SDS011;66443;49.122;8.346;2024-01-30T06:50:11;15.40;;;13.57;;
77384;SDS011;66443;49.122;8.346;2024-01-30T06:52:36;15.83;;;13.30;;
77384;SDS011;66443;49.122;8.346;2024-01-30T06:55:01;17.70;;;14.47;;
77384;SDS011;66443;49.122;8.346;2024-01-30T06:57:26;18.00;;;13.60;;
77384;SDS011;66443;49.122;8.346;2024-01-30T06:59:53;18.93;;;12.20;;
77384;SDS011;66443;49.122;8.346;2024-01-30T07:02:18;15.27;;;13.67;;
77384;SDS011;66443;49.122;8.346;2024-01-30T07:04:43;15.60;;;11.60;;
77384;SDS011;66443;49.122;8.346;2024-01-30T07:07:08;16.17;;;12.53;;
77384;SDS011;66443;49.122;8.346;2024-01-30T07:09:37;19.50;;;12.70;;
77384;SDS011;66443;49.122;8.346;2024-01-30T07:12:02;18.57;;;13.23;;
77384;SDS011;66443;49.122;8.346;2024-01-30T07:14:28;15.00;;;12.67;;
77384;SDS011;66443;49.122;8.346;2024-01-30T07:16:53;18.10;;;13.70;;
77384;SDS011;66443;49.122;8.346;2024-01-30T07:19:18;23.87;;;14.37;;
77384;SDS011;66443;49.122;8.346;2024-01-30T07:21:43;17.27;;;13.23;;
77384;SDS011;66443;49.122;8.346;2024-01-30T07:24:09;20.17;;;13.03;;
77384;SDS011;66443;49.122;8.346;2024-01-30T07:26:34;15.37;;;12.60;;
77384;SDS011;66443;49.122;8.346;2024-01-30T07:29:00;18.83;;;12.97;;
77384;SDS011;66443;49.122;8.346;2024-01-30T07:31:25;20.23;;;12.83;;
77384;SDS011;66443;49.122;8.346;2024-01-30T07:33:51;19.70;;;13.80;;
77384;SDS011;66443;49.122;8.346;2024-01-30T07:36:16;16.73;;;14.50;;
77384;SDS011;66443;49.122;8.346;2024-01-30T07:38:41;15.33;;;13.40;;
77384;SDS011;66443;49.122;8.346;2024-01-30T07:41:06;23.77;;;15.00;;
77384;SDS011;66443;49.122;8.346;2024-01-30T07:43:31;17.07;;;12.97;;
77384;SDS011;66443;49.122;8.346;2024-01-30T07:45:58;14.93;;;13.17;;
77384;SDS011;66443;49.122;8.346;2024-01-30T07:48:24;20.53;;;15.20;;
77384;SDS011;66443;49.122;8.346;2024-01-30T07:50:49;18.47;;;14.60;;
77384;SDS011;66443;49.122;8.346;2024-01-30T07:53:15;26.50;;;14.23;;
77384;SDS011;66443;49.122;8.346;2024-01-30T07:55:40;26.83;;;17.37;;
77384;SDS011;66443;49.122;8.346;2024-01-30T07:58:06;27.90;;;16.40;;
77384;SDS011;66443;49.122;8.346;2024-01-30T08:00:31;22.03;;;16.87;;
77384;SDS011;66443;49.122;8.346;2024-01-30T08:02:57;29.23;;;19.00;;
77384;SDS011;66443;49.122;8.346;2024-01-30T08:05:22;27.37;;;20.07;;
77384;SDS011;66443;49.122;8.346;2024-01-30T08:07:50;40.73;;;22.90;;
77384;SDS011;66443;49.122;8.346;2024-01-30T08:10:16;36.00;;;23.80;;
77384;SDS011;66443;49.122;8.346;2024-01-30T08:12:44;36.57;;;24.60;;
77384;SDS011;66443;49.122;8.346;2024-01-30T08:15:09;39.17;;;22.70;;
77384;SDS011;66443;49.122;8.346;2024-01-30T08:17:35;25.13;;;20.80;;
77384;SDS011;66443;49.122;8.346;2024-01-30T08:20:00;32.77;;;20.83;;
77384;SDS011;66443;49.122;8.346;2024-01-30T08:22:29;35.90;;;21.90;;
77384;SDS011;66443;49.122;8.346;2024-01-30T08:24:54;37.07;;;23.87;;
77384;SDS011;66443;49.122;8.346;2024-01-30T08:27:19;44.13;;;23.53;;
77384;SDS011;66443;49.122;8.346;2024-01-30T08:29:48;43.40;;;25.17;;
77384;SDS011;66443;49.122;8.346;2024-01-30T08:32:13;42.20;;;26.00;;
77384;SDS011;66443;49.122;8.346;2024-01-30T08:34:38;43.63;;;27.23;;
77384;SDS011;66443;49.122;8.346;2024-01-30T08:37:04;51.10;;;28.10;;
77384;SDS011;66443;49.122;8.346;2024-01-30T08:39:31;44.33;;;27.23;;
77384;SDS011;66443;49.122;8.346;2024-01-30T08:41:56;56.53;;;30.57;;
77384;SDS011;66443;49.122;8.346;2024-01-30T08:44:25;47.50;;;27.53;;
77384;SDS011;66443;49.122;8.346;2024-01-30T08:46:50;48.63;;;29.27;;
77384;SDS011;66443;49.122;8.346;2024-01-30T08:49:21;49.37;;;27.77;;
77384;SDS011;66443;49.122;8.346;2024-01-30T08:51:46;47.40;;;27.40;;
77384;SDS011;66443;49.122;8.346;2024-01-30T08:54:14;53.63;;;30.03;;
77384;SDS011;66443;49.122;8.346;2024-01-30T08:56:39;67.80;;;30.67;;
77384;SDS011;66443;49.122;8.346;2024-01-30T08:59:05;58.07;;;31.73;;
77384;SDS011;66443;49.122;8.346;2024-01-30T09:01:30;52.67;;;30.13;;
77384;SDS011;66443;49.122;8.346;2024-01-30T09:03:55;49.57;;;29.57;;
77384;SDS011;66443;49.122;8.346;2024-01-30T09:06:21;45.33;;;28.27;;
77384;SDS011;66443;49.122;8.346;2024-01-30T09:08:46;50.33;;;28.80;;
77384;SDS011;66443;49.122;8.346;2024-01-30T09:11:14;48.63;;;29.03;;
77384;SDS011;66443;49.122;8.346;2024-01-30T09:13:39;51.47;;;27.93;;
77384;SDS011;66443;49.122;8.346;2024-01-30T09:16:05;49.03;;;28.77;;
77384;SDS011;66443;49.122;8.346;2024-01-30T09:18:30;55.40;;;29.73;;
77384;SDS011;66443;49.122;8.346;2024-01-30T09:20:58;44.60;;;26.67;;
77384;SDS011;66443;49.122;8.346;2024-01-30T09:23:23;43.50;;;27.83;;
77384;SDS011;66443;49.122;8.346;2024-01-30T09:25:48;47.47;;;28.13;;
77384;SDS011;66443;49.122;8.346;2024-01-30T09:28:14;54.53;;;27.90;;
77384;SDS011;66443;49.122;8.346;2024-01-30T09:30:39;47.50;;;27.43;;
77384;SDS011;66443;49.122;8.346;2024-01-30T09:33:04;43.00;;;27.30;;
77384;SDS011;66443;49.122;8.346;2024-01-30T09:35:32;51.33;;;27.70;;
77384;SDS011;66443;49.122;8.346;2024-01-30T09:37:58;51.43;;;28.37;;
77384;SDS011;66443;49.122;8.346;2024-01-30T09:40:24;47.73;;;28.37;;
77384;SDS011;66443;49.122;8.346;2024-01-30T09:42:49;47.57;;;28.83;;
77384;SDS011;66443;49.122;8.346;2024-01-30T09:45:15;53.17;;;28.53;;
77384;SDS011;66443;49.122;8.346;2024-01-30T09:47:41;48.67;;;29.50;;
77384;SDS011;66443;49.122;8.346;2024-01-30T09:50:13;48.90;;;29.83;;
77384;SDS011;66443;49.122;8.346;2024-01-30T09:52:39;44.80;;;27.83;;
77384;SDS011;66443;49.122;8.346;2024-01-30T09:55:04;43.77;;;28.23;;
77384;SDS011;66443;49.122;8.346;2024-01-30T09:57:34;42.50;;;26.20;;
77384;SDS011;66443;49.122;8.346;2024-01-30T09:59:59;37.57;;;25.47;;
77384;SDS011;66443;49.122;8.346;2024-01-30T10:02:24;34.87;;;24.30;;
77384;SDS011;66443;49.122;8.346;2024-01-30T10:04:50;36.90;;;24.00;;
77384;SDS011;66443;49.122;8.346;2024-01-30T10:07:21;29.03;;;22.23;;
77384;SDS011;66443;49.122;8.346;2024-01-30T10:09:49;25.80;;;20.83;;
77384;SDS011;66443;49.122;8.346;2024-01-30T10:12:15;27.10;;;20.37;;
77384;SDS011;66443;49.122;8.346;2024-01-30T10:14:40;23.10;;;19.20;;
77384;SDS011;66443;49.122;8.346;2024-01-30T10:17:09;24.57;;;18.23;;
77384;SDS011;66443;49.122;8.346;2024-01-30T10:19:35;25.70;;;18.73;;
77384;SDS011;66443;49.122;8.346;2024-01-30T10:22:03;18.97;;;17.03;;
77384;SDS011;66443;49.122;8.346;2024-01-30T10:24:28;20.57;;;18.47;;
77384;SDS011;66443;49.122;8.346;2024-01-30T10:26:54;17.93;;;16.33;;
77384;SDS011;66443;49.122;8.346;2024-01-30T10:29:23;19.03;;;17.10;;
77384;SDS011;66443;49.122;8.346;2024-01-30T10:31:57;17.83;;;15.93;;
77384;SDS011;66443;49.122;8.346;2024-01-30T10:34:23;17.10;;;15.37;;
77384;SDS011;66443;49.122;8.346;2024-01-30T10:36:54;16.50;;;14.73;;
77384;SDS011;66443;49.122;8.346;2024-01-30T10:39:23;18.23;;;15.03;;
77384;SDS011;66443;49.122;8.346;2024-01-30T10:41:48;15.27;;;13.67;;
77384;SDS011;66443;49.122;8.346;2024-01-30T10:44:16;16.10;;;13.77;;
77384;SDS011;66443;49.122;8.346;2024-01-30T10:46:43;17.93;;;16.17;;
77384;SDS011;66443;49.122;8.346;2024-01-30T10:49:10;16.37;;;14.77;;
77384;SDS011;66443;49.122;8.346;2024-01-30T10:51:37;15.80;;;14.17;;
77384;SDS011;66443;49.122;8.346;2024-01-30T10:54:03;16.57;;;14.60;;
77384;SDS011;66443;49.122;8.346;2024-01-30T10:56:28;14.67;;;13.37;;
77384;SDS011;66443;49.122;8.346;2024-01-30T10:58:54;16.57;;;14.80;;
77384;SDS011;66443;49.122;8.346;2024-01-30T11:01:20;15.83;;;14.23;;
77384;SDS011;66443;49.122;8.346;2024-01-30T11:03:48;13.83;;;12.63;;
77384;SDS011;66443;49.122;8.346;2024-01-30T11:06:13;15.37;;;13.93;;
77384;SDS011;66443;49.122;8.346;2024-01-30T11:08:43;15.27;;;13.87;;
77384;SDS011;66443;49.122;8.346;2024-01-30T11:11:08;15.20;;;13.50;;
77384;SDS011;66443;49.122;8.346;2024-01-30T11:13:34;14.97;;;13.57;;
77384;SDS011;66443;49.122;8.346;2024-01-30T11:16:05;13.93;;;12.60;;
77384;SDS011;66443;49.122;8.346;2024-01-30T11:18:30;15.97;;;14.30;;
77384;SDS011;66443;49.122;8.346;2024-01-30T11:20:56;14.33;;;13.03;;
77384;SDS011;66443;49.122;8.346;2024-01-30T11:23:22;13.87;;;12.63;;
77384;SDS011;66443;49.122;8.346;2024-01-30T11:25:47;14.20;;;12.87;;
77384;SDS011;66443;49.122;8.346;2024-01-30T11:28:13;13.93;;;12.57;;
77384;SDS011;66443;49.122;8.346;2024-01-30T11:30:39;14.20;;;12.80;;
77384;SDS011;66443;49.122;8.346;2024-01-30T11:33:08;15.33;;;13.90;;
77384;SDS011;66443;49.122;8.346;2024-01-30T11:35:37;14.40;;;13.00;;
77384;SDS011;66443;49.122;8.346;2024-01-30T11:38:04;15.50;;;14.00;;
77384;SDS011;66443;49.122;8.346;2024-01-30T11:40:30;14.83;;;13.37;;
77384;SDS011;66443;49.122;8.346;2024-01-30T11:42:56;15.90;;;14.33;;
77384;SDS011;66443;49.122;8.346;2024-01-30T11:45:21;14.63;;;13.20;;
77384;SDS011;66443;49.122;8.346;2024-01-30T11:47:46;15.67;;;14.20;;
77384;SDS011;66443;49.122;8.346;2024-01-30T11:50:12;14.30;;;13.00;;
77384;SDS011;66443;49.122;8.346;2024-01-30T11:52:37;15.20;;;13.27;;
77384;SDS011;66443;49.122;8.346;2024-01-30T11:55:02;16.17;;;13.17;;
77384;SDS011;66443;49.122;8.346;2024-01-30T11:57:28;13.50;;;12.20;;
77384;SDS011;66443;49.122;8.346;2024-01-30T11:59:54;12.53;;;11.33;;
77384;SDS011;66443;49.122;8.346;2024-01-30T12:02:19;12.63;;;11.37;;
77384;SDS011;66443;49.122;8.346;2024-01-30T12:04:44;13.17;;;11.80;;
77384;SDS011;66443;49.122;8.346;2024-01-30T12:07:09;12.17;;;11.10;;
77384;SDS011;66443;49.122;8.346;2024-01-30T12:09:34;11.63;;;10.67;;
77384;SDS011;66443;49.122;8.346;2024-01-30T12:12:00;11.73;;;10.60;;
77384;SDS011;66443;49.122;8.346;2024-01-30T12:14:25;11.83;;;10.47;;
77384;SDS011;66443;49.122;8.346;2024-01-30T12:16:51;10.70;;;9.80;;
77384;SDS011;66443;49.122;8.346;2024-01-30T12:19:26;10.73;;;9.63;;
77384;SDS011;66443;49.122;8.346;2024-01-30T12:21:55;11.50;;;9.63;;
77384;SDS011;66443;49.122;8.346;2024-01-30T12:24:21;10.90;;;9.80;;
77384;SDS011;66443;49.122;8.346;2024-01-30T12:26:46;11.13;;;10.03;;
77384;SDS011;66443;49.122;8.346;2024-01-30T12:29:11;10.07;;;9.07;;
77384;SDS011;66443;49.122;8.346;2024-01-30T12:31:39;11.10;;;8.73;;
77384;SDS011;66443;49.122;8.346;2024-01-30T12:34:06;9.00;;;8.30;;
77384;SDS011;66443;49.122;8.346;2024-01-30T12:36:32;8.73;;;7.93;;
77384;SDS011;66443;49.122;8.346;2024-01-30T12:38:57;10.80;;;8.67;;
77384;SDS011;66443;49.122;8.346;2024-01-30T12:41:22;8.83;;;7.93;;
77384;SDS011;66443;49.122;8.346;2024-01-30T12:43:53;8.33;;;7.63;;
77384;SDS011;66443;49.122;8.346;2024-01-30T12:46:18;8.47;;;7.57;;
77384;SDS011;66443;49.122;8.346;2024-01-30T12:48:43;9.03;;;5.90;;
77384;SDS011;66443;49.122;8.346;2024-01-30T12:51:08;6.20;;;5.70;;
77384;SDS011;66443;49.122;8.346;2024-01-30T12:53:33;6.33;;;5.73;;
77384;SDS011;66443;49.122;8.346;2024-01-30T12:55:59;5.50;;;5.00;;
77384;SDS011;66443;49.122;8.346;2024-01-30T12:58:25;6.33;;;5.80;;
77384;SDS011;66443;49.122;8.346;2024-01-30T13:00:50;6.13;;;5.63;;
77384;SDS011;66443;49.122;8.346;2024-01-30T13:03:15;5.50;;;5.00;;
77384;SDS011;66443;49.122;8.346;2024-01-30T13:05:40;5.60;;;5.20;;
77384;SDS011;66443;49.122;8.346;2024-01-30T13:08:06;6.10;;;4.87;;
77384;SDS011;66443;49.122;8.346;2024-01-30T13:10:31;5.60;;;5.07;;
77384;SDS011;66443;49.122;8.346;2024-01-30T13:12:56;6.20;;;5.67;;
77384;SDS011;66443;49.122;8.346;2024-01-30T13:15:21;9.37;;;5.60;;
77384;SDS011;66443;49.122;8.346;2024-01-30T13:17:47;6.50;;;5.33;;
77384;SDS011;66443;49.122;8.346;2024-01-30T13:20:13;6.13;;;5.50;;
77384;SDS011;66443;49.122;8.346;2024-01-30T13:22:41;8.73;;;6.00;;
77384;SDS011;66443;49.122;8.346;2024-01-30T13:25:07;6.80;;;6.10;;
77384;SDS011;66443;49.122;8.346;2024-01-30T13:27:32;7.50;;;6.30;;
77384;SDS011;66443;49.122;8.346;2024-01-30T13:29:57;8.27;;;6.50;;
77384;SDS011;66443;49.122;8.346;2024-01-30T13:32:22;6.90;;;6.30;;
77384;SDS011;66443;49.122;8.346;2024-01-30T13:34:48;8.13;;;5.33;;
77384;SDS011;66443;49.122;8.346;2024-01-30T13:37:13;8.77;;;5.80;;
77384;SDS011;66443;49.122;8.346;2024-01-30T13:39:38;6.27;;;5.67;;
77384;SDS011;66443;49.122;8.346;2024-01-30T13:42:04;5.50;;;5.00;;
77384;SDS011;66443;49.122;8.346;2024-01-30T13:44:29;5.47;;;5.07;;
77384;SDS011;66443;49.122;8.346;2024-01-30T13:46:54;6.80;;;6.10;;
77384;SDS011;66443;49.122;8.346;2024-01-30T13:49:20;5.77;;;5.17;;
77384;SDS011;66443;49.122;8.346;2024-01-30T13:51:45;6.13;;;5.53;;
77384;SDS011;66443;49.122;8.346;2024-01-30T13:54:10;5.80;;;5.30;;
77384;SDS011;66443;49.122;8.346;2024-01-30T13:56:35;6.03;;;5.47;;
77384;SDS011;66443;49.122;8.346;2024-01-30T13:59:01;5.40;;;4.90;;
77384;SDS011;66443;49.122;8.346;2024-01-30T14:01:30;6.00;;;5.40;;
77384;SDS011;66443;49.122;8.346;2024-01-30T14:03:55;5.73;;;5.23;;
77384;SDS011;66443;49.122;8.346;2024-01-30T14:06:20;6.03;;;5.43;;
77384;SDS011;66443;49.122;8.346;2024-01-30T14:08:45;7.93;;;5.50;;
77384;SDS011;66443;49.122;8.346;2024-01-30T14:11:10;5.70;;;5.20;;
77384;SDS011;66443;49.122;8.346;2024-01-30T14:13:35;6.50;;;5.57;;
77384;SDS011;66443;49.122;8.346;2024-01-30T14:16:01;8.43;;;6.73;;